KLFT

Lafayette Regional / Paul Fournet Field Airport

Lafayette, Louisiana, USA
KLFT 182320Z 1900/1924 VRB03KT P6SM SCT050 BKN120 FM191100 VRB03KT P6SM OVC050 FM191800 34005KT P6SM VCSH SCT015 OVC025 PROB30 1918/1924 4SM -SHRA
Issued Valid From Valid To
Nov-18 @ 23:20 UTC
(2 hours ago)
Nov-19 @ 00:00 UTC
(59 minutes ago)
Nov-20 @ 00:00 UTC
(in 23 hours)
Nov-19 @ 00:00 to Nov-19 @ 11:00
KLFT 182320Z 1900/1924 VRB03KT P6SM SCT050 BKN120
Wind Visibility Clouds
Variable at 3 knots Greater than 6 miles
  • Scattered at 5,000' AGL
  • Broken at 12,000' AGL
From Nov-19 @ 11:00 to Nov-19 @ 18:00
FM191100 VRB03KT P6SM OVC050
Wind Visibility Clouds
Variable at 3 knots Greater than 6 miles
  • Overcast at 5,000' AGL
Probable  (Probability 30%) Nov-19 @ 18:00 to Nov-20 @ 00:00
PROB30 1918/1924 4SM -SHRA
Visibility Conditions
4 miles
  • Light Rain
From Nov-19 @ 18:00 to Nov-20 @ 00:00
FM191800 34005KT P6SM VCSH SCT015 OVC025
Wind Visibility Clouds
340° at 5 knots Greater than 6 miles
  • Scattered at 1,500' AGL
  • Overcast at 2,500' AGL
KLFT 182320Z 1900/1924 VRB03KT P6SM SCT050 BKN120 FM191100 VRB03KT P6SM OVC050 FM191800 34005KT P6SM VCSH SCT015 OVC025 PROB30 1918/1924 4SM -SHRA
Issued Nov-18 @ 23:20 UTC
(2 hours ago)
Valid From Nov-19 @ 00:00 UTC
(59 minutes ago)
Valid To Nov-20 @ 00:00 UTC
(in 23 hours)
Nov-19 @ 00:00 - Nov-19 @ 11:00
Wind Visibility
Variable at 3 knots Greater than 6 miles
Clouds
  • Scattered at 5,000' AGL
  • Broken at 12,000' AGL
From Nov-19 @ 11:00 - Nov-19 @ 18:00
Wind Visibility
Variable at 3 knots Greater than 6 miles
Clouds
  • Overcast at 5,000' AGL
Probability 30% Probable Nov-19 @ 18:00 - Nov-20 @ 00:00
Conditions
  • Light Rain
From Nov-19 @ 18:00 - Nov-20 @ 00:00
Wind Visibility
340° at 5 knots Greater than 6 miles
Clouds
  • Scattered at 1,500' AGL
  • Overcast at 2,500' AGL